createdAt,value
2018-02-16T00:01:48.387Z,99.90
2018-02-16T00:04:14.623Z,99.90
2018-02-16T00:06:40.865Z,99.90
2018-02-16T00:09:07.840Z,99.90
2018-02-16T00:11:34.105Z,99.90
2018-02-16T00:14:00.354Z,99.90
2018-02-16T00:16:26.565Z,99.90
2018-02-16T00:18:52.774Z,99.90
2018-02-16T00:21:18.994Z,99.90
2018-02-16T00:23:45.204Z,99.90
2018-02-16T00:26:11.420Z,99.90
2018-02-16T00:28:37.664Z,99.90
2018-02-16T00:31:04.239Z,99.90
2018-02-16T00:33:31.208Z,99.90
2018-02-16T00:35:58.159Z,99.90
2018-02-16T00:38:25.147Z,99.90
2018-02-16T00:40:51.370Z,99.90
2018-02-16T00:43:18.326Z,99.90
2018-02-16T00:45:44.544Z,99.90
2018-02-16T00:48:10.782Z,99.90
2018-02-16T00:50:37.039Z,99.90
2018-02-16T00:53:04.004Z,99.90
2018-02-16T00:55:30.260Z,99.90
2018-02-16T00:57:56.478Z,99.90
2018-02-16T01:00:23.700Z,99.90
2018-02-16T01:02:49.944Z,99.90
2018-02-16T01:05:16.177Z,99.90
2018-02-16T01:07:42.411Z,99.90
2018-02-16T01:10:08.642Z,99.90
2018-02-16T01:12:34.876Z,99.90
2018-02-16T01:15:01.153Z,99.90
2018-02-16T01:17:27.817Z,99.90
2018-02-16T01:19:54.059Z,99.90
2018-02-16T01:22:20.303Z,99.90
2018-02-16T01:24:46.523Z,99.90
2018-02-16T01:27:12.752Z,99.90
2018-02-16T01:29:38.986Z,99.90
2018-02-16T01:32:05.233Z,99.90
2018-02-16T01:34:31.467Z,99.90
2018-02-16T01:36:57.703Z,99.90
2018-02-16T01:39:23.907Z,99.90
2018-02-16T01:41:50.892Z,99.90
2018-02-16T01:44:17.094Z,99.90
2018-02-16T01:46:44.084Z,99.90
2018-02-16T01:49:10.308Z,99.90
2018-02-16T01:51:37.268Z,99.90
2018-02-16T01:54:03.477Z,99.90
2018-02-16T01:56:29.730Z,99.90
2018-02-16T01:58:56.691Z,99.90
2018-02-16T02:01:22.918Z,99.90
2018-02-16T02:03:49.567Z,99.90
2018-02-16T02:06:15.797Z,99.90
2018-02-16T02:08:42.007Z,99.90
2018-02-16T02:11:08.251Z,99.90
2018-02-16T02:13:35.197Z,99.90
2018-02-16T02:16:01.433Z,99.90
2018-02-16T02:18:27.653Z,99.90
2018-02-16T02:20:54.635Z,99.90
2018-02-16T02:23:20.895Z,99.90
2018-02-16T02:25:47.107Z,99.90
2018-02-16T02:28:13.348Z,99.90
2018-02-16T02:30:39.556Z,99.90
2018-02-16T02:33:06.542Z,99.90
2018-02-16T02:35:32.747Z,99.90
2018-02-16T02:37:58.971Z,99.90
2018-02-16T02:40:25.196Z,99.90
2018-02-16T02:42:51.414Z,99.90
2018-02-16T02:45:17.626Z,99.90
2018-02-16T02:47:44.609Z,99.90
2018-02-16T02:50:11.587Z,99.90
2018-02-16T02:52:37.791Z,99.90
2018-02-16T02:55:04.011Z,99.90
2018-02-16T02:57:30.977Z,99.90
2018-02-16T02:59:57.205Z,99.90
2018-02-16T03:02:24.159Z,99.90
2018-02-16T03:04:51.118Z,99.90
2018-02-16T03:07:18.076Z,99.90
2018-02-16T03:09:45.041Z,99.90
2018-02-16T03:12:12.002Z,99.90
2018-02-16T03:14:38.948Z,99.90
2018-02-16T03:17:05.158Z,99.90
2018-02-16T03:19:31.392Z,99.90
2018-02-16T03:21:57.608Z,99.90
2018-02-16T03:24:23.834Z,99.90
2018-02-16T03:26:50.038Z,99.90
2018-02-16T03:29:16.256Z,99.90
2018-02-16T03:31:42.458Z,99.90
2018-02-16T03:34:08.676Z,99.90
2018-02-16T03:36:34.906Z,99.90
2018-02-16T03:39:01.863Z,99.90
2018-02-16T03:41:28.104Z,99.90
2018-02-16T03:43:54.312Z,99.90
2018-02-16T03:46:20.555Z,99.90
2018-02-16T03:48:46.772Z,99.90
2018-02-16T03:51:12.991Z,99.90
2018-02-16T03:53:39.230Z,99.90
2018-02-16T03:56:05.439Z,99.90
2018-02-16T03:58:31.686Z,99.90
2018-02-16T04:00:58.653Z,99.90
2018-02-16T04:03:24.864Z,99.90
2018-02-16T04:05:51.089Z,99.90
2018-02-16T04:08:17.316Z,99.90
2018-02-16T04:10:43.562Z,99.90
2018-02-16T04:13:09.799Z,99.90
2018-02-16T04:15:36.037Z,99.90
2018-02-16T04:18:02.299Z,99.90
2018-02-16T04:20:28.517Z,99.90
2018-02-16T04:22:54.753Z,99.90
2018-02-16T04:25:20.971Z,99.90
2018-02-16T04:27:47.203Z,99.90
2018-02-16T04:30:14.169Z,99.90
2018-02-16T04:32:40.389Z,99.90
2018-02-16T04:35:07.649Z,99.90
2018-02-16T04:37:34.631Z,99.90
2018-02-16T04:40:00.853Z,99.90
2018-02-16T04:42:27.821Z,99.90
2018-02-16T04:44:54.762Z,99.90
2018-02-16T04:47:21.711Z,99.90
2018-02-16T04:49:47.911Z,99.90
2018-02-16T04:52:14.141Z,99.90
2018-02-16T04:54:40.373Z,99.90
2018-02-16T04:57:06.609Z,99.90
2018-02-16T04:59:32.822Z,99.90
2018-02-16T05:01:59.771Z,99.90
2018-02-16T05:04:25.989Z,99.90
2018-02-16T05:06:52.189Z,99.90
2018-02-16T05:09:18.429Z,99.90
2018-02-16T05:11:44.636Z,99.90
2018-02-16T05:14:17.696Z,99.90
2018-02-16T05:16:43.914Z,99.90
2018-02-16T05:19:10.134Z,99.90
2018-02-16T05:21:37.093Z,99.90
2018-02-16T05:24:04.052Z,99.90
2018-02-16T05:26:31.026Z,99.90
2018-02-16T05:28:57.229Z,99.90
2018-02-16T05:31:23.448Z,99.90
2018-02-16T05:33:49.694Z,99.90
2018-02-16T05:36:15.928Z,99.90
2018-02-16T05:38:42.168Z,99.90
2018-02-16T05:41:08.374Z,99.90
2018-02-16T05:43:34.608Z,99.90
2018-02-16T05:46:00.810Z,99.90
2018-02-16T05:48:27.024Z,99.90
2018-02-16T05:50:53.246Z,99.90
2018-02-16T05:53:19.480Z,98.80
2018-02-16T05:55:45.724Z,97.30
2018-02-16T05:58:11.952Z,97.30
2018-02-16T06:00:38.184Z,96.00
2018-02-16T06:03:04.383Z,95.70
2018-02-16T06:05:30.582Z,95.90
2018-02-16T06:07:56.805Z,95.60
2018-02-16T06:10:23.048Z,96.10
2018-02-16T06:12:49.278Z,96.70
2018-02-16T06:15:15.495Z,97.40
2018-02-16T06:17:42.464Z,99.00
2018-02-16T06:20:09.426Z,99.80
2018-02-16T06:22:36.666Z,99.90
2018-02-16T06:25:02.913Z,99.90
2018-02-16T06:27:29.874Z,99.90
2018-02-16T06:29:56.838Z,99.90
2018-02-16T06:32:23.773Z,99.90
2018-02-16T06:34:49.991Z,99.90
2018-02-16T06:37:16.209Z,99.90
2018-02-16T06:39:42.452Z,99.90
2018-02-16T06:42:08.690Z,99.90
2018-02-16T06:44:34.898Z,99.90
2018-02-16T06:47:01.137Z,99.90
2018-02-16T06:49:27.337Z,99.90
2018-02-16T06:51:53.572Z,99.90
2018-02-16T06:54:19.787Z,99.90
2018-02-16T06:56:46.011Z,99.90
2018-02-16T06:59:12.247Z,99.90
2018-02-16T07:01:38.442Z,99.90
2018-02-16T07:04:04.671Z,99.90
2018-02-16T07:06:30.887Z,99.90
2018-02-16T07:08:57.119Z,99.90
2018-02-16T07:11:23.341Z,99.90
2018-02-16T07:13:49.569Z,99.90
2018-02-16T07:16:16.563Z,99.90
2018-02-16T07:18:42.763Z,99.90
2018-02-16T07:21:08.991Z,99.90
2018-02-16T07:23:35.215Z,99.90
2018-02-16T07:26:01.779Z,99.90
2018-02-16T07:28:28.033Z,99.90
2018-02-16T07:30:54.988Z,99.90
2018-02-16T07:33:21.978Z,99.90
2018-02-16T07:35:48.191Z,99.90
2018-02-16T07:38:15.183Z,99.90
2018-02-16T07:40:41.408Z,99.90
2018-02-16T07:43:08.376Z,99.90
2018-02-16T07:45:34.612Z,99.90
2018-02-16T07:48:00.827Z,99.90
2018-02-16T07:50:27.796Z,99.90
2018-02-16T07:52:54.770Z,99.90
2018-02-16T07:55:21.034Z,99.90
2018-02-16T07:57:47.249Z,99.90
2018-02-16T08:00:13.473Z,99.90
2018-02-16T08:02:40.445Z,99.90
2018-02-16T08:05:06.663Z,99.90
2018-02-16T08:07:32.958Z,99.90
2018-02-16T08:09:59.160Z,99.90
2018-02-16T08:12:26.121Z,99.90
2018-02-16T08:14:52.344Z,99.90
2018-02-16T08:17:18.546Z,99.90
2018-02-16T08:19:44.767Z,99.90
2018-02-16T08:22:10.978Z,99.90
2018-02-16T08:24:37.209Z,99.90
2018-02-16T08:27:04.179Z,99.90
2018-02-16T08:29:30.434Z,99.90
2018-02-16T08:31:56.700Z,99.90
2018-02-16T08:34:22.912Z,99.90
2018-02-16T08:36:49.138Z,99.90
2018-02-16T08:39:15.396Z,99.90
2018-02-16T08:41:42.431Z,99.90
2018-02-16T08:44:09.388Z,99.90
2018-02-16T08:46:35.608Z,99.90
2018-02-16T08:49:01.836Z,99.90
2018-02-16T08:51:28.064Z,99.90
2018-02-16T08:53:54.292Z,99.90
2018-02-16T08:56:20.512Z,99.90
2018-02-16T08:58:46.759Z,99.90
2018-02-16T09:01:12.985Z,99.90
2018-02-16T09:03:39.206Z,99.90
2018-02-16T09:06:06.201Z,99.90
2018-02-16T09:08:32.435Z,99.90
2018-02-16T09:10:58.917Z,99.90
2018-02-16T09:13:25.109Z,99.90
2018-02-16T09:15:51.331Z,99.90
2018-02-16T09:18:18.321Z,99.90
2018-02-16T09:20:44.539Z,99.90
2018-02-16T09:23:10.859Z,99.90
2018-02-16T09:25:37.113Z,99.90
2018-02-16T09:28:04.137Z,99.90
2018-02-16T09:30:30.371Z,99.90
2018-02-16T09:32:56.585Z,99.90
2018-02-16T09:35:22.859Z,99.90
2018-02-16T09:37:49.288Z,99.90
2018-02-16T09:40:16.300Z,99.90
2018-02-16T09:42:43.261Z,99.90
2018-02-16T09:45:10.217Z,99.90
2018-02-16T09:47:36.446Z,99.90
2018-02-16T09:50:03.418Z,99.90
2018-02-16T09:52:30.370Z,99.90
2018-02-16T09:55:02.287Z,99.90
2018-02-16T09:57:28.553Z,99.90
2018-02-16T09:59:54.796Z,99.90
2018-02-16T10:02:21.013Z,99.90
2018-02-16T10:04:47.244Z,99.90
2018-02-16T10:07:13.501Z,99.90
2018-02-16T10:09:39.711Z,99.90
2018-02-16T10:12:05.945Z,99.90
2018-02-16T10:14:32.179Z,99.90
2018-02-16T10:16:58.413Z,99.90
2018-02-16T10:19:25.357Z,99.90
2018-02-16T10:21:52.323Z,99.90
2018-02-16T10:24:18.549Z,99.90
2018-02-16T10:26:44.785Z,99.90
2018-02-16T10:29:11.023Z,99.90
2018-02-16T10:31:37.256Z,99.90
2018-02-16T10:34:03.513Z,99.90
2018-02-16T10:36:29.732Z,99.90
2018-02-16T10:38:55.974Z,99.90
2018-02-16T10:41:22.181Z,99.90
2018-02-16T10:43:48.390Z,99.90
2018-02-16T10:46:14.636Z,99.90
2018-02-16T10:48:40.847Z,99.90
2018-02-16T10:51:07.067Z,99.90
2018-02-16T10:53:33.303Z,99.90
2018-02-16T10:55:59.548Z,99.90
2018-02-16T10:58:25.748Z,99.90
2018-02-16T11:00:58.071Z,99.90
2018-02-16T11:03:30.438Z,99.90
2018-02-16T11:05:56.686Z,99.90
2018-02-16T11:08:29.041Z,99.90
2018-02-16T11:10:55.244Z,99.90
2018-02-16T11:13:21.485Z,99.90
2018-02-16T11:15:48.436Z,99.60
2018-02-16T11:18:14.680Z,99.60
2018-02-16T11:20:40.878Z,99.40
2018-02-16T11:23:07.135Z,99.10
2018-02-16T11:25:33.363Z,99.30
2018-02-16T11:27:59.600Z,99.20
2018-02-16T11:30:25.824Z,98.90
2018-02-16T11:32:52.067Z,98.70
2018-02-16T11:35:18.291Z,98.60
2018-02-16T11:37:44.496Z,98.80
2018-02-16T11:40:10.755Z,99.00
2018-02-16T11:42:37.001Z,98.90
2018-02-16T11:45:03.244Z,99.00
2018-02-16T11:47:29.484Z,99.00
2018-02-16T11:49:55.685Z,99.10
2018-02-16T11:52:21.961Z,99.20
2018-02-16T11:54:48.179Z,99.40
2018-02-16T11:57:14.457Z,99.60
2018-02-16T11:59:40.712Z,99.40
2018-02-16T12:02:06.942Z,99.50
2018-02-16T12:04:33.207Z,99.80
2018-02-16T12:06:59.419Z,99.70
2018-02-16T12:09:25.663Z,99.30
2018-02-16T12:11:51.881Z,99.20
2018-02-16T12:14:18.842Z,99.00
2018-02-16T12:16:45.838Z,98.80
2018-02-16T12:19:12.054Z,98.80
2018-02-16T12:21:38.275Z,98.80
2018-02-16T12:24:04.488Z,98.90
2018-02-16T12:26:30.734Z,98.60
2018-02-16T12:28:56.959Z,98.50
2018-02-16T12:31:23.203Z,98.70
2018-02-16T12:33:49.446Z,98.80
2018-02-16T12:36:15.689Z,98.90
2018-02-16T12:38:41.919Z,98.90
2018-02-16T12:41:08.164Z,99.30
2018-02-16T12:43:34.469Z,99.40
2018-02-16T12:46:00.684Z,99.50
2018-02-16T12:48:27.650Z,99.90
2018-02-16T12:50:54.608Z,99.90
2018-02-16T12:53:20.850Z,99.90
2018-02-16T12:55:47.843Z,99.90
2018-02-16T12:58:14.083Z,99.90
2018-02-16T13:00:40.364Z,99.90
2018-02-16T13:03:07.356Z,99.90
2018-02-16T13:05:33.565Z,99.90
2018-02-16T13:08:00.543Z,99.90
2018-02-16T13:10:26.802Z,99.90
2018-02-16T13:12:53.064Z,99.90
2018-02-16T13:15:19.288Z,99.90
2018-02-16T13:17:45.885Z,99.90
2018-02-16T13:20:12.123Z,99.90
2018-02-16T13:22:38.362Z,99.90
2018-02-16T13:25:04.642Z,99.90
2018-02-16T13:27:30.867Z,99.90
2018-02-16T13:29:57.900Z,99.90
2018-02-16T13:32:24.127Z,99.90
2018-02-16T13:34:50.373Z,99.90
2018-02-16T13:37:16.611Z,99.90
2018-02-16T13:39:43.570Z,99.90
2018-02-16T13:42:09.829Z,99.90
2018-02-16T13:44:36.038Z,99.10
2018-02-16T13:47:02.292Z,98.60
2018-02-16T13:49:28.521Z,98.50
2018-02-16T13:51:54.787Z,98.50
2018-02-16T13:54:21.029Z,98.60
2018-02-16T13:56:47.243Z,99.10
2018-02-16T13:59:13.489Z,98.90
2018-02-16T14:01:39.729Z,99.00
2018-02-16T14:04:05.993Z,99.10
2018-02-16T14:06:32.219Z,99.40
2018-02-16T14:08:58.527Z,99.50
2018-02-16T14:11:24.761Z,99.50
2018-02-16T14:13:51.013Z,99.50
2018-02-16T14:16:17.251Z,99.30
2018-02-16T14:18:43.475Z,99.40
2018-02-16T14:21:09.747Z,99.40
2018-02-16T14:23:35.951Z,99.40
2018-02-16T14:26:02.463Z,99.50
2018-02-16T14:28:28.694Z,99.70
2018-02-16T14:30:54.915Z,99.90
2018-02-16T14:33:21.163Z,99.90
2018-02-16T14:35:47.400Z,99.90
2018-02-16T14:38:13.639Z,99.90
2018-02-16T14:40:39.883Z,99.90
2018-02-16T14:43:06.127Z,99.90
2018-02-16T14:45:32.344Z,99.90
2018-02-16T14:47:58.593Z,99.90
2018-02-16T14:50:24.816Z,99.90
2018-02-16T14:52:51.113Z,99.90
2018-02-16T14:55:18.093Z,99.90
2018-02-16T14:57:44.326Z,99.90
2018-02-16T15:00:11.333Z,99.90
2018-02-16T15:02:37.565Z,99.90
2018-02-16T15:05:03.859Z,99.90
2018-02-16T15:07:30.816Z,99.90
2018-02-16T15:09:57.792Z,99.90
2018-02-16T15:12:24.057Z,99.90
2018-02-16T15:14:50.299Z,99.90
2018-02-16T15:17:16.563Z,99.90
2018-02-16T15:19:42.801Z,99.90
2018-02-16T15:22:09.043Z,99.90
2018-02-16T15:24:35.269Z,99.90
2018-02-16T15:27:01.520Z,99.90
2018-02-16T15:29:27.760Z,99.90
2018-02-16T15:31:53.982Z,99.90
2018-02-16T15:34:20.237Z,99.90
2018-02-16T15:36:46.483Z,99.90
2018-02-16T15:39:12.722Z,99.90
2018-02-16T15:41:38.968Z,99.90
2018-02-16T15:44:05.194Z,99.90
2018-02-16T15:46:31.429Z,99.90
2018-02-16T15:48:57.639Z,99.90
2018-02-16T15:51:23.884Z,99.90
2018-02-16T15:53:50.119Z,99.90
2018-02-16T15:56:17.110Z,99.90
2018-02-16T15:58:43.326Z,99.90
2018-02-16T16:01:09.562Z,99.90
2018-02-16T16:03:35.838Z,99.90
2018-02-16T16:06:02.071Z,99.90
2018-02-16T16:08:28.305Z,99.90
2018-02-16T16:10:54.579Z,99.90
2018-02-16T16:13:20.869Z,99.90
2018-02-16T16:15:47.113Z,99.90
2018-02-16T16:18:13.351Z,99.90
2018-02-16T16:20:39.627Z,99.90
2018-02-16T16:23:05.898Z,99.90
2018-02-16T16:25:32.157Z,99.90
2018-02-16T16:27:59.105Z,99.90
2018-02-16T16:30:26.069Z,99.90
2018-02-16T16:32:53.053Z,99.90
2018-02-16T16:35:19.321Z,99.90
2018-02-16T16:37:46.315Z,99.90
2018-02-16T16:40:12.531Z,99.90
2018-02-16T16:42:38.797Z,99.90
2018-02-16T16:45:05.805Z,99.90
2018-02-16T16:47:32.159Z,99.90
2018-02-16T16:49:58.410Z,99.90
2018-02-16T16:52:24.668Z,99.90
2018-02-16T16:54:50.919Z,99.90
2018-02-16T16:57:17.147Z,99.90
2018-02-16T16:59:43.383Z,99.90
2018-02-16T17:02:09.629Z,99.90
2018-02-16T17:04:35.908Z,99.90
2018-02-16T17:07:02.172Z,99.90
2018-02-16T17:09:28.420Z,99.90
2018-02-16T17:11:54.666Z,99.90
2018-02-16T17:14:20.901Z,99.90
2018-02-16T17:16:47.141Z,99.90
2018-02-16T17:19:13.397Z,99.90
2018-02-16T17:21:39.610Z,99.90
2018-02-16T17:24:05.864Z,99.90
2018-02-16T17:26:32.076Z,99.90
2018-02-16T17:28:58.320Z,99.90
2018-02-16T17:31:24.554Z,99.90
2018-02-16T17:33:50.792Z,99.90
2018-02-16T17:36:17.044Z,99.90
2018-02-16T17:38:43.271Z,99.90
2018-02-16T17:41:09.531Z,99.90
2018-02-16T17:43:35.749Z,99.90
2018-02-16T17:46:02.738Z,99.90
2018-02-16T17:48:28.981Z,99.90
2018-02-16T17:50:55.220Z,99.90
2018-02-16T17:53:21.484Z,99.90
2018-02-16T17:55:47.730Z,99.90
2018-02-16T17:58:13.971Z,99.90
2018-02-16T18:00:40.203Z,99.90
2018-02-16T18:03:07.206Z,99.90
2018-02-16T18:05:34.206Z,99.90
2018-02-16T18:08:00.433Z,99.90
2018-02-16T18:10:26.707Z,99.90
2018-02-16T18:12:52.939Z,99.90
2018-02-16T18:15:19.164Z,99.90
2018-02-16T18:17:45.457Z,99.90
2018-02-16T18:20:12.441Z,99.90
2018-02-16T18:22:38.714Z,99.90
2018-02-16T18:25:04.973Z,99.90
2018-02-16T18:27:31.235Z,99.90
2018-02-16T18:29:57.485Z,99.90
2018-02-16T18:32:24.534Z,99.90
2018-02-16T18:34:50.761Z,99.90
2018-02-16T18:37:16.987Z,99.90
2018-02-16T18:39:43.255Z,99.90
2018-02-16T18:42:09.476Z,99.90
2018-02-16T18:44:35.731Z,99.90
2018-02-16T18:47:01.966Z,99.90
2018-02-16T18:49:28.223Z,99.90
2018-02-16T18:51:55.235Z,99.90
2018-02-16T18:54:21.464Z,99.90
2018-02-16T18:56:47.706Z,99.90
2018-02-16T18:59:13.973Z,99.90
2018-02-16T19:01:40.234Z,99.90
2018-02-16T19:04:06.464Z,99.90
2018-02-16T19:06:32.745Z,99.90
2018-02-16T19:08:59.742Z,99.90
2018-02-16T19:11:26.023Z,99.90
2018-02-16T19:13:53.066Z,99.90
2018-02-16T19:16:19.400Z,99.90
2018-02-16T19:18:46.450Z,99.90
2018-02-16T19:21:12.832Z,99.90
2018-02-16T19:23:40.105Z,99.90
2018-02-16T19:26:06.434Z,99.90
2018-02-16T19:28:32.783Z,99.90
2018-02-16T19:30:59.151Z,99.90
2018-02-16T19:33:25.488Z,99.90
2018-02-16T19:35:51.786Z,99.90
2018-02-16T19:38:18.194Z,99.90
2018-02-16T19:40:44.501Z,99.90
2018-02-16T19:43:11.591Z,99.90
2018-02-16T19:45:37.906Z,99.90
2018-02-16T19:48:05.024Z,99.90
2018-02-16T19:50:31.276Z,99.90
2018-02-16T19:52:57.558Z,99.90
2018-02-16T19:55:23.857Z,99.90
2018-02-16T19:57:50.145Z,99.90
2018-02-16T20:00:16.462Z,99.90
2018-02-16T20:02:42.735Z,99.90
2018-02-16T20:05:09.032Z,99.90
2018-02-16T20:07:35.362Z,99.90
2018-02-16T20:10:01.675Z,99.90
2018-02-16T20:12:28.096Z,99.90
2018-02-16T20:14:54.426Z,99.90
2018-02-16T20:17:21.506Z,99.90
2018-02-16T20:19:48.560Z,99.90
2018-02-16T20:22:14.844Z,99.90
2018-02-16T20:24:42.186Z,99.90
2018-02-16T20:27:08.488Z,99.90
2018-02-16T20:29:35.558Z,99.90
2018-02-16T20:32:02.612Z,99.90
2018-02-16T20:34:30.486Z,99.90
2018-02-16T20:36:57.538Z,99.90
2018-02-16T20:39:23.840Z,99.90
2018-02-16T20:41:50.148Z,99.90
2018-02-16T20:44:17.182Z,99.90
2018-02-16T20:46:43.514Z,99.90
2018-02-16T20:49:09.832Z,99.90
2018-02-16T20:51:36.096Z,99.90
2018-02-16T20:54:03.375Z,99.90
2018-02-16T20:56:29.725Z,99.90
2018-02-16T20:58:57.540Z,99.90
2018-02-16T21:01:24.749Z,99.90
2018-02-16T21:03:51.043Z,99.90
2018-02-16T21:06:17.406Z,99.90
2018-02-16T21:08:43.733Z,99.90
2018-02-16T21:11:10.085Z,99.90
2018-02-16T21:13:36.369Z,99.90
2018-02-16T21:16:02.671Z,99.90
2018-02-16T21:18:28.993Z,99.90
2018-02-16T21:20:55.299Z,99.90
2018-02-16T21:23:22.361Z,99.90
2018-02-16T21:25:48.747Z,99.90
2018-02-16T21:28:16.179Z,99.90
2018-02-16T21:30:42.655Z,99.90
2018-02-16T21:33:08.984Z,99.90
2018-02-16T21:35:35.595Z,99.90
2018-02-16T21:38:02.117Z,99.90
2018-02-16T21:40:28.397Z,99.90
2018-02-16T21:42:56.873Z,99.90
2018-02-16T21:45:23.304Z,99.90
2018-02-16T21:47:49.546Z,99.90
2018-02-16T21:50:15.811Z,99.90
2018-02-16T21:52:43.269Z,99.90
2018-02-16T21:55:09.706Z,99.90
2018-02-16T21:57:36.682Z,99.90
2018-02-16T22:00:02.928Z,99.90
2018-02-16T22:02:31.734Z,99.90
2018-02-16T22:04:58.169Z,99.90
2018-02-16T22:07:24.384Z,99.90
2018-02-16T22:09:50.658Z,99.90
2018-02-16T22:12:16.884Z,99.90
2018-02-16T22:14:43.136Z,99.90
2018-02-16T22:17:09.436Z,99.90
2018-02-16T22:19:35.682Z,99.90
2018-02-16T22:22:01.928Z,99.90
2018-02-16T22:24:28.186Z,99.90
2018-02-16T22:26:54.425Z,99.90
2018-02-16T22:29:21.780Z,99.90
2018-02-16T22:31:48.548Z,99.90
2018-02-16T22:34:14.762Z,99.90
2018-02-16T22:36:41.016Z,99.90
2018-02-16T22:39:07.250Z,99.90
2018-02-16T22:41:33.529Z,99.90
2018-02-16T22:43:59.764Z,99.90
2018-02-16T22:46:26.000Z,99.90
2018-02-16T22:48:52.280Z,99.90
2018-02-16T22:51:18.538Z,99.90
2018-02-16T22:53:44.761Z,99.90
2018-02-16T22:56:17.905Z,99.90
2018-02-16T22:58:44.687Z,99.90
2018-02-16T23:01:10.923Z,99.90
2018-02-16T23:03:37.188Z,99.90
2018-02-16T23:06:04.173Z,99.90
2018-02-16T23:08:31.502Z,99.90
2018-02-16T23:10:57.942Z,99.90
2018-02-16T23:13:24.167Z,99.90
2018-02-16T23:15:50.393Z,99.90
2018-02-16T23:18:16.611Z,99.90
2018-02-16T23:20:42.845Z,99.90
2018-02-16T23:23:09.261Z,99.90
2018-02-16T23:25:35.481Z,99.90
2018-02-16T23:28:01.719Z,99.90
2018-02-16T23:30:27.960Z,99.90
2018-02-16T23:32:54.207Z,99.90
2018-02-16T23:35:21.180Z,99.90
2018-02-16T23:37:48.143Z,99.90
2018-02-16T23:40:14.428Z,99.90
2018-02-16T23:42:40.611Z,99.90
2018-02-16T23:45:06.834Z,99.90
2018-02-16T23:47:33.052Z,99.90
2018-02-16T23:50:00.049Z,99.90
2018-02-16T23:52:26.290Z,99.90
2018-02-16T23:54:52.596Z,99.90
2018-02-16T23:57:19.608Z,99.90
2018-02-16T23:59:45.866Z,99.90
